sensor_id;sensor_type;location;lat;lon;timestamp;P1;durP1;ratioP1;P2;durP2;ratioP2
20306;SDS011;10312;52.434;13.206;2022-07-23T00:00:12;6.90;;;4.80;;
20306;SDS011;10312;52.434;13.206;2022-07-23T00:02:40;8.18;;;4.97;;
20306;SDS011;10312;52.434;13.206;2022-07-23T00:05:07;7.40;;;5.05;;
20306;SDS011;10312;52.434;13.206;2022-07-23T00:07:34;8.35;;;5.20;;
20306;SDS011;10312;52.434;13.206;2022-07-23T00:10:00;8.98;;;4.97;;
20306;SDS011;10312;52.434;13.206;2022-07-23T00:12:27;6.72;;;4.70;;
20306;SDS011;10312;52.434;13.206;2022-07-23T00:14:54;5.72;;;4.68;;
20306;SDS011;10312;52.434;13.206;2022-07-23T00:17:21;7.43;;;4.40;;
20306;SDS011;10312;52.434;13.206;2022-07-23T00:19:49;7.95;;;4.60;;
20306;SDS011;10312;52.434;13.206;2022-07-23T00:22:15;8.13;;;4.80;;
20306;SDS011;10312;52.434;13.206;2022-07-23T00:24:42;8.57;;;4.95;;
20306;SDS011;10312;52.434;13.206;2022-07-23T00:27:29;7.07;;;4.93;;
20306;SDS011;10312;52.434;13.206;2022-07-23T00:29:56;6.45;;;4.53;;
20306;SDS011;10312;52.434;13.206;2022-07-23T00:32:22;6.88;;;4.57;;
20306;SDS011;10312;52.434;13.206;2022-07-23T00:35:09;8.88;;;4.40;;
20306;SDS011;10312;52.434;13.206;2022-07-23T00:37:36;6.13;;;4.40;;
20306;SDS011;10312;52.434;13.206;2022-07-23T00:40:03;6.80;;;5.15;;
20306;SDS011;10312;52.434;13.206;2022-07-23T00:42:31;5.75;;;4.68;;
20306;SDS011;10312;52.434;13.206;2022-07-23T00:44:58;6.25;;;4.47;;
20306;SDS011;10312;52.434;13.206;2022-07-23T00:47:24;7.40;;;4.75;;
20306;SDS011;10312;52.434;13.206;2022-07-23T00:49:52;10.52;;;5.13;;
20306;SDS011;10312;52.434;13.206;2022-07-23T00:52:19;7.95;;;5.07;;
20306;SDS011;10312;52.434;13.206;2022-07-23T00:54:48;6.55;;;4.95;;
20306;SDS011;10312;52.434;13.206;2022-07-23T00:57:16;7.75;;;4.80;;
20306;SDS011;10312;52.434;13.206;2022-07-23T00:59:43;6.43;;;5.20;;
20306;SDS011;10312;52.434;13.206;2022-07-23T01:02:11;8.65;;;5.05;;
20306;SDS011;10312;52.434;13.206;2022-07-23T01:04:38;7.78;;;5.10;;
20306;SDS011;10312;52.434;13.206;2022-07-23T01:07:04;8.57;;;4.70;;
20306;SDS011;10312;52.434;13.206;2022-07-23T01:09:31;10.63;;;4.78;;
20306;SDS011;10312;52.434;13.206;2022-07-23T01:11:58;6.78;;;4.30;;
20306;SDS011;10312;52.434;13.206;2022-07-23T01:14:25;8.60;;;4.57;;
20306;SDS011;10312;52.434;13.206;2022-07-23T01:16:53;7.05;;;4.60;;
20306;SDS011;10312;52.434;13.206;2022-07-23T01:19:20;7.88;;;4.57;;
20306;SDS011;10312;52.434;13.206;2022-07-23T01:21:48;9.57;;;4.80;;
20306;SDS011;10312;52.434;13.206;2022-07-23T01:24:16;9.93;;;4.88;;
20306;SDS011;10312;52.434;13.206;2022-07-23T01:27:01;8.85;;;4.85;;
20306;SDS011;10312;52.434;13.206;2022-07-23T01:29:28;8.27;;;4.60;;
20306;SDS011;10312;52.434;13.206;2022-07-23T01:31:58;11.43;;;4.97;;
20306;SDS011;10312;52.434;13.206;2022-07-23T01:34:25;8.45;;;4.60;;
20306;SDS011;10312;52.434;13.206;2022-07-23T01:36:52;10.55;;;5.00;;
20306;SDS011;10312;52.434;13.206;2022-07-23T01:39:19;7.28;;;4.57;;
20306;SDS011;10312;52.434;13.206;2022-07-23T01:41:46;6.85;;;4.85;;
20306;SDS011;10312;52.434;13.206;2022-07-23T01:44:16;7.50;;;4.75;;
20306;SDS011;10312;52.434;13.206;2022-07-23T01:46:43;8.63;;;4.82;;
20306;SDS011;10312;52.434;13.206;2022-07-23T01:49:11;7.28;;;4.88;;
20306;SDS011;10312;52.434;13.206;2022-07-23T01:51:46;7.07;;;4.72;;
20306;SDS011;10312;52.434;13.206;2022-07-23T01:54:36;7.03;;;4.85;;
20306;SDS011;10312;52.434;13.206;2022-07-23T01:57:06;8.35;;;5.10;;
20306;SDS011;10312;52.434;13.206;2022-07-23T01:59:33;6.97;;;4.80;;
20306;SDS011;10312;52.434;13.206;2022-07-23T02:02:01;10.15;;;5.28;;
20306;SDS011;10312;52.434;13.206;2022-07-23T02:04:30;6.55;;;4.47;;
20306;SDS011;10312;52.434;13.206;2022-07-23T02:06:57;6.32;;;4.15;;
20306;SDS011;10312;52.434;13.206;2022-07-23T02:09:25;7.88;;;4.50;;
20306;SDS011;10312;52.434;13.206;2022-07-23T02:11:52;8.65;;;4.65;;
20306;SDS011;10312;52.434;13.206;2022-07-23T02:14:19;6.93;;;4.45;;
20306;SDS011;10312;52.434;13.206;2022-07-23T02:16:46;7.88;;;4.60;;
20306;SDS011;10312;52.434;13.206;2022-07-23T02:19:13;6.38;;;4.40;;
20306;SDS011;10312;52.434;13.206;2022-07-23T02:21:40;9.20;;;4.50;;
20306;SDS011;10312;52.434;13.206;2022-07-23T02:24:10;6.72;;;4.43;;
20306;SDS011;10312;52.434;13.206;2022-07-23T02:26:39;7.93;;;4.65;;
20306;SDS011;10312;52.434;13.206;2022-07-23T02:29:07;8.07;;;4.50;;
20306;SDS011;10312;52.434;13.206;2022-07-23T02:31:34;10.75;;;5.15;;
20306;SDS011;10312;52.434;13.206;2022-07-23T02:34:07;6.65;;;4.18;;
20306;SDS011;10312;52.434;13.206;2022-07-23T02:36:33;7.15;;;4.18;;
20306;SDS011;10312;52.434;13.206;2022-07-23T02:39:02;8.18;;;4.50;;
20306;SDS011;10312;52.434;13.206;2022-07-23T02:41:31;6.38;;;4.35;;
20306;SDS011;10312;52.434;13.206;2022-07-23T02:43:58;7.75;;;4.45;;
20306;SDS011;10312;52.434;13.206;2022-07-23T02:46:26;6.68;;;4.40;;
20306;SDS011;10312;52.434;13.206;2022-07-23T02:48:53;8.85;;;4.90;;
20306;SDS011;10312;52.434;13.206;2022-07-23T02:51:20;7.07;;;4.47;;
20306;SDS011;10312;52.434;13.206;2022-07-23T02:53:53;8.18;;;4.93;;
20306;SDS011;10312;52.434;13.206;2022-07-23T02:56:20;6.63;;;4.93;;
20306;SDS011;10312;52.434;13.206;2022-07-23T02:58:46;9.18;;;5.03;;
20306;SDS011;10312;52.434;13.206;2022-07-23T03:01:13;6.18;;;4.20;;
20306;SDS011;10312;52.434;13.206;2022-07-23T03:03:44;7.57;;;4.47;;
20306;SDS011;10312;52.434;13.206;2022-07-23T03:06:11;6.82;;;4.60;;
20306;SDS011;10312;52.434;13.206;2022-07-23T03:08:39;8.70;;;5.25;;
20306;SDS011;10312;52.434;13.206;2022-07-23T03:11:06;8.68;;;5.05;;
20306;SDS011;10312;52.434;13.206;2022-07-23T03:13:39;8.88;;;4.93;;
20306;SDS011;10312;52.434;13.206;2022-07-23T03:16:07;9.23;;;5.25;;
20306;SDS011;10312;52.434;13.206;2022-07-23T03:18:35;8.95;;;5.03;;
20306;SDS011;10312;52.434;13.206;2022-07-23T03:21:07;6.78;;;4.65;;
20306;SDS011;10312;52.434;13.206;2022-07-23T03:23:34;9.32;;;4.65;;
20306;SDS011;10312;52.434;13.206;2022-07-23T03:26:01;7.63;;;4.20;;
20306;SDS011;10312;52.434;13.206;2022-07-23T03:28:27;6.95;;;4.82;;
20306;SDS011;10312;52.434;13.206;2022-07-23T03:30:54;7.97;;;5.45;;
20306;SDS011;10312;52.434;13.206;2022-07-23T03:33:21;7.78;;;5.03;;
20306;SDS011;10312;52.434;13.206;2022-07-23T03:35:48;8.25;;;4.25;;
20306;SDS011;10312;52.434;13.206;2022-07-23T03:38:23;7.53;;;4.45;;
20306;SDS011;10312;52.434;13.206;2022-07-23T03:40:49;9.27;;;4.05;;
20306;SDS011;10312;52.434;13.206;2022-07-23T03:43:16;6.55;;;4.00;;
20306;SDS011;10312;52.434;13.206;2022-07-23T03:45:44;9.45;;;3.85;;
20306;SDS011;10312;52.434;13.206;2022-07-23T03:48:11;8.98;;;3.90;;
20306;SDS011;10312;52.434;13.206;2022-07-23T03:50:38;8.18;;;3.72;;
20306;SDS011;10312;52.434;13.206;2022-07-23T03:53:05;6.70;;;3.55;;
20306;SDS011;10312;52.434;13.206;2022-07-23T03:55:33;5.60;;;3.30;;
20306;SDS011;10312;52.434;13.206;2022-07-23T03:58:00;5.18;;;3.35;;
20306;SDS011;10312;52.434;13.206;2022-07-23T04:00:27;5.40;;;3.35;;
20306;SDS011;10312;52.434;13.206;2022-07-23T04:02:54;6.00;;;3.35;;
20306;SDS011;10312;52.434;13.206;2022-07-23T04:05:21;6.10;;;3.28;;
20306;SDS011;10312;52.434;13.206;2022-07-23T04:07:51;5.55;;;2.83;;
20306;SDS011;10312;52.434;13.206;2022-07-23T04:10:18;6.82;;;3.08;;
20306;SDS011;10312;52.434;13.206;2022-07-23T04:12:45;5.88;;;2.83;;
20306;SDS011;10312;52.434;13.206;2022-07-23T04:15:12;6.97;;;3.05;;
20306;SDS011;10312;52.434;13.206;2022-07-23T04:17:39;5.78;;;2.55;;
20306;SDS011;10312;52.434;13.206;2022-07-23T04:20:06;13.10;;;3.15;;
20306;SDS011;10312;52.434;13.206;2022-07-23T04:22:40;8.60;;;4.90;;
20306;SDS011;10312;52.434;13.206;2022-07-23T04:25:07;7.57;;;3.65;;
20306;SDS011;10312;52.434;13.206;2022-07-23T04:27:35;11.10;;;4.07;;
20306;SDS011;10312;52.434;13.206;2022-07-23T04:30:02;10.30;;;4.40;;
20306;SDS011;10312;52.434;13.206;2022-07-23T04:32:29;8.50;;;4.00;;
20306;SDS011;10312;52.434;13.206;2022-07-23T04:34:56;7.57;;;4.18;;
20306;SDS011;10312;52.434;13.206;2022-07-23T04:37:23;11.77;;;3.97;;
20306;SDS011;10312;52.434;13.206;2022-07-23T04:39:50;10.10;;;4.10;;
20306;SDS011;10312;52.434;13.206;2022-07-23T04:42:17;10.25;;;4.28;;
20306;SDS011;10312;52.434;13.206;2022-07-23T04:44:44;9.68;;;4.57;;
20306;SDS011;10312;52.434;13.206;2022-07-23T04:47:11;12.73;;;4.60;;
20306;SDS011;10312;52.434;13.206;2022-07-23T04:49:41;7.47;;;5.03;;
20306;SDS011;10312;52.434;13.206;2022-07-23T04:52:07;11.30;;;4.60;;
20306;SDS011;10312;52.434;13.206;2022-07-23T04:54:34;6.85;;;3.40;;
20306;SDS011;10312;52.434;13.206;2022-07-23T04:57:01;15.68;;;4.07;;
20306;SDS011;10312;52.434;13.206;2022-07-23T04:59:29;9.93;;;3.90;;
20306;SDS011;10312;52.434;13.206;2022-07-23T05:02:01;7.28;;;4.32;;
20306;SDS011;10312;52.434;13.206;2022-07-23T05:04:28;6.50;;;3.88;;
20306;SDS011;10312;52.434;13.206;2022-07-23T05:06:55;7.80;;;3.95;;
20306;SDS011;10312;52.434;13.206;2022-07-23T05:09:22;6.85;;;3.08;;
20306;SDS011;10312;52.434;13.206;2022-07-23T05:11:50;9.07;;;3.55;;
20306;SDS011;10312;52.434;13.206;2022-07-23T05:14:16;5.97;;;3.20;;
20306;SDS011;10312;52.434;13.206;2022-07-23T05:16:44;6.95;;;3.40;;
20306;SDS011;10312;52.434;13.206;2022-07-23T05:19:17;6.50;;;3.50;;
20306;SDS011;10312;52.434;13.206;2022-07-23T05:21:47;8.07;;;3.45;;
20306;SDS011;10312;52.434;13.206;2022-07-23T05:24:14;8.13;;;3.95;;
20306;SDS011;10312;52.434;13.206;2022-07-23T05:26:41;6.90;;;3.63;;
20306;SDS011;10312;52.434;13.206;2022-07-23T05:29:09;10.60;;;4.15;;
20306;SDS011;10312;52.434;13.206;2022-07-23T05:31:36;6.45;;;3.72;;
20306;SDS011;10312;52.434;13.206;2022-07-23T05:34:04;8.65;;;4.00;;
20306;SDS011;10312;52.434;13.206;2022-07-23T05:36:32;6.90;;;3.53;;
20306;SDS011;10312;52.434;13.206;2022-07-23T05:39:00;6.30;;;3.67;;
20306;SDS011;10312;52.434;13.206;2022-07-23T05:41:32;6.43;;;3.63;;
20306;SDS011;10312;52.434;13.206;2022-07-23T05:44:01;10.15;;;4.35;;
20306;SDS011;10312;52.434;13.206;2022-07-23T05:46:28;6.45;;;3.50;;
20306;SDS011;10312;52.434;13.206;2022-07-23T05:49:00;8.82;;;3.75;;
20306;SDS011;10312;52.434;13.206;2022-07-23T05:51:58;6.78;;;3.80;;
20306;SDS011;10312;52.434;13.206;2022-07-23T05:54:39;6.80;;;3.95;;
20306;SDS011;10312;52.434;13.206;2022-07-23T05:57:06;6.72;;;4.10;;
20306;SDS011;10312;52.434;13.206;2022-07-23T05:59:32;8.65;;;4.22;;
20306;SDS011;10312;52.434;13.206;2022-07-23T06:01:59;7.82;;;4.20;;
20306;SDS011;10312;52.434;13.206;2022-07-23T06:04:27;9.93;;;4.18;;
20306;SDS011;10312;52.434;13.206;2022-07-23T06:07:12;6.60;;;3.90;;
20306;SDS011;10312;52.434;13.206;2022-07-23T06:09:39;6.80;;;3.90;;
20306;SDS011;10312;52.434;13.206;2022-07-23T06:12:06;6.57;;;4.13;;
20306;SDS011;10312;52.434;13.206;2022-07-23T06:14:34;7.75;;;4.30;;
20306;SDS011;10312;52.434;13.206;2022-07-23T06:17:01;9.18;;;3.90;;
20306;SDS011;10312;52.434;13.206;2022-07-23T06:19:27;9.25;;;4.35;;
20306;SDS011;10312;52.434;13.206;2022-07-23T06:21:54;8.10;;;4.97;;
20306;SDS011;10312;52.434;13.206;2022-07-23T06:24:21;10.00;;;4.25;;
20306;SDS011;10312;52.434;13.206;2022-07-23T06:26:49;6.75;;;4.10;;
20306;SDS011;10312;52.434;13.206;2022-07-23T06:29:16;8.52;;;4.60;;
20306;SDS011;10312;52.434;13.206;2022-07-23T06:31:42;9.20;;;4.47;;
20306;SDS011;10312;52.434;13.206;2022-07-23T06:34:09;7.30;;;4.88;;
20306;SDS011;10312;52.434;13.206;2022-07-23T06:36:36;6.63;;;4.22;;
20306;SDS011;10312;52.434;13.206;2022-07-23T06:39:05;8.13;;;4.35;;
20306;SDS011;10312;52.434;13.206;2022-07-23T06:41:34;6.72;;;4.50;;
20306;SDS011;10312;52.434;13.206;2022-07-23T06:44:01;6.50;;;4.35;;
20306;SDS011;10312;52.434;13.206;2022-07-23T06:46:30;11.48;;;4.65;;
20306;SDS011;10312;52.434;13.206;2022-07-23T06:48:57;8.32;;;4.22;;
20306;SDS011;10312;52.434;13.206;2022-07-23T06:51:24;9.68;;;4.35;;
20306;SDS011;10312;52.434;13.206;2022-07-23T06:53:51;5.68;;;4.07;;
20306;SDS011;10312;52.434;13.206;2022-07-23T06:56:19;11.13;;;4.70;;
20306;SDS011;10312;52.434;13.206;2022-07-23T06:58:46;7.68;;;4.93;;
20306;SDS011;10312;52.434;13.206;2022-07-23T07:01:13;8.25;;;5.15;;
20306;SDS011;10312;52.434;13.206;2022-07-23T07:03:40;7.40;;;4.90;;
20306;SDS011;10312;52.434;13.206;2022-07-23T07:06:07;9.90;;;5.65;;
20306;SDS011;10312;52.434;13.206;2022-07-23T07:08:34;7.07;;;4.50;;
20306;SDS011;10312;52.434;13.206;2022-07-23T07:11:00;12.85;;;5.38;;
20306;SDS011;10312;52.434;13.206;2022-07-23T07:13:27;10.85;;;5.32;;
20306;SDS011;10312;52.434;13.206;2022-07-23T07:15:54;8.75;;;5.38;;
20306;SDS011;10312;52.434;13.206;2022-07-23T07:18:21;7.60;;;4.80;;
20306;SDS011;10312;52.434;13.206;2022-07-23T07:20:48;11.75;;;5.88;;
20306;SDS011;10312;52.434;13.206;2022-07-23T07:23:16;10.70;;;5.72;;
20306;SDS011;10312;52.434;13.206;2022-07-23T07:25:43;11.25;;;5.90;;
20306;SDS011;10312;52.434;13.206;2022-07-23T07:28:10;11.15;;;5.93;;
20306;SDS011;10312;52.434;13.206;2022-07-23T07:30:36;10.63;;;5.72;;
20306;SDS011;10312;52.434;13.206;2022-07-23T07:33:03;8.23;;;5.18;;
20306;SDS011;10312;52.434;13.206;2022-07-23T07:35:30;11.35;;;5.88;;
20306;SDS011;10312;52.434;13.206;2022-07-23T07:37:59;10.10;;;5.63;;
20306;SDS011;10312;52.434;13.206;2022-07-23T07:40:26;10.27;;;5.90;;
20306;SDS011;10312;52.434;13.206;2022-07-23T07:42:59;11.05;;;5.82;;
20306;SDS011;10312;52.434;13.206;2022-07-23T07:45:26;10.82;;;6.05;;
20306;SDS011;10312;52.434;13.206;2022-07-23T07:47:53;8.88;;;4.82;;
20306;SDS011;10312;52.434;13.206;2022-07-23T07:50:20;9.43;;;5.15;;
20306;SDS011;10312;52.434;13.206;2022-07-23T07:52:48;9.52;;;5.10;;
20306;SDS011;10312;52.434;13.206;2022-07-23T07:55:15;8.57;;;4.70;;
20306;SDS011;10312;52.434;13.206;2022-07-23T07:57:43;8.93;;;5.28;;
20306;SDS011;10312;52.434;13.206;2022-07-23T08:00:15;9.68;;;5.80;;
20306;SDS011;10312;52.434;13.206;2022-07-23T08:02:52;9.82;;;5.65;;
20306;SDS011;10312;52.434;13.206;2022-07-23T08:05:22;9.00;;;4.97;;
20306;SDS011;10312;52.434;13.206;2022-07-23T08:07:56;7.32;;;4.88;;
20306;SDS011;10312;52.434;13.206;2022-07-23T08:10:24;9.48;;;5.47;;
20306;SDS011;10312;52.434;13.206;2022-07-23T08:12:56;7.57;;;4.10;;
20306;SDS011;10312;52.434;13.206;2022-07-23T08:15:23;9.18;;;4.20;;
20306;SDS011;10312;52.434;13.206;2022-07-23T08:17:52;7.47;;;4.47;;
20306;SDS011;10312;52.434;13.206;2022-07-23T08:20:20;6.97;;;3.97;;
20306;SDS011;10312;52.434;13.206;2022-07-23T08:25:23;5.70;;;4.40;;
20306;SDS011;10312;52.434;13.206;2022-07-23T08:27:53;7.22;;;4.10;;
20306;SDS011;10312;52.434;13.206;2022-07-23T08:30:23;6.35;;;4.35;;
20306;SDS011;10312;52.434;13.206;2022-07-23T08:33:12;6.78;;;3.75;;
20306;SDS011;10312;52.434;13.206;2022-07-23T08:35:59;7.03;;;4.45;;
20306;SDS011;10312;52.434;13.206;2022-07-23T08:38:30;8.50;;;3.83;;
20306;SDS011;10312;52.434;13.206;2022-07-23T08:40:58;6.75;;;3.53;;
20306;SDS011;10312;52.434;13.206;2022-07-23T08:43:26;10.00;;;3.97;;
20306;SDS011;10312;52.434;13.206;2022-07-23T08:45:55;6.55;;;3.83;;
20306;SDS011;10312;52.434;13.206;2022-07-23T08:48:24;6.07;;;3.40;;
20306;SDS011;10312;52.434;13.206;2022-07-23T08:50:54;8.48;;;3.78;;
20306;SDS011;10312;52.434;13.206;2022-07-23T08:53:25;9.25;;;4.00;;
20306;SDS011;10312;52.434;13.206;2022-07-23T08:55:54;6.40;;;3.70;;
20306;SDS011;10312;52.434;13.206;2022-07-23T08:58:25;5.97;;;3.65;;
20306;SDS011;10312;52.434;13.206;2022-07-23T09:00:54;7.05;;;4.22;;
20306;SDS011;10312;52.434;13.206;2022-07-23T09:03:27;6.97;;;3.97;;
20306;SDS011;10312;52.434;13.206;2022-07-23T09:05:56;7.03;;;3.58;;
20306;SDS011;10312;52.434;13.206;2022-07-23T09:08:25;8.20;;;3.78;;
20306;SDS011;10312;52.434;13.206;2022-07-23T09:10:55;7.95;;;3.75;;
20306;SDS011;10312;52.434;13.206;2022-07-23T09:13:36;6.10;;;3.70;;
20306;SDS011;10312;52.434;13.206;2022-07-23T09:18:49;6.55;;;3.50;;
20306;SDS011;10312;52.434;13.206;2022-07-23T09:24:01;5.78;;;3.35;;
20306;SDS011;10312;52.434;13.206;2022-07-23T09:26:37;6.95;;;3.40;;
20306;SDS011;10312;52.434;13.206;2022-07-23T09:29:06;7.22;;;3.78;;
20306;SDS011;10312;52.434;13.206;2022-07-23T09:31:43;8.18;;;3.42;;
20306;SDS011;10312;52.434;13.206;2022-07-23T09:36:57;10.43;;;3.72;;
20306;SDS011;10312;52.434;13.206;2022-07-23T09:39:37;5.60;;;3.85;;
20306;SDS011;10312;52.434;13.206;2022-07-23T09:42:17;9.30;;;3.60;;
20306;SDS011;10312;52.434;13.206;2022-07-23T09:44:46;6.93;;;3.20;;
20306;SDS011;10312;52.434;13.206;2022-07-23T09:47:14;5.15;;;3.10;;
20306;SDS011;10312;52.434;13.206;2022-07-23T09:52:33;4.68;;;2.83;;
20306;SDS011;10312;52.434;13.206;2022-07-23T09:55:07;6.53;;;3.17;;
20306;SDS011;10312;52.434;13.206;2022-07-23T09:57:34;6.43;;;3.30;;
20306;SDS011;10312;52.434;13.206;2022-07-23T10:00:04;7.50;;;3.35;;
20306;SDS011;10312;52.434;13.206;2022-07-23T10:02:32;7.88;;;2.92;;
20306;SDS011;10312;52.434;13.206;2022-07-23T10:05:19;7.82;;;3.15;;
20306;SDS011;10312;52.434;13.206;2022-07-23T10:08:08;8.43;;;3.10;;
20306;SDS011;10312;52.434;13.206;2022-07-23T10:10:57;6.53;;;2.97;;
20306;SDS011;10312;52.434;13.206;2022-07-23T10:13:40;5.28;;;2.70;;
20306;SDS011;10312;52.434;13.206;2022-07-23T10:16:47;5.30;;;2.83;;
20306;SDS011;10312;52.434;13.206;2022-07-23T10:19:14;4.55;;;2.58;;
20306;SDS011;10312;52.434;13.206;2022-07-23T10:21:44;5.43;;;2.78;;
20306;SDS011;10312;52.434;13.206;2022-07-23T10:30:02;5.82;;;2.88;;
20306;SDS011;10312;52.434;13.206;2022-07-23T10:32:49;7.13;;;3.33;;
20306;SDS011;10312;52.434;13.206;2022-07-23T10:35:44;5.50;;;2.80;;
20306;SDS011;10312;52.434;13.206;2022-07-23T10:38:25;6.43;;;3.25;;
20306;SDS011;10312;52.434;13.206;2022-07-23T10:40:57;5.00;;;3.03;;
20306;SDS011;10312;52.434;13.206;2022-07-23T10:43:28;5.72;;;3.03;;
20306;SDS011;10312;52.434;13.206;2022-07-23T10:45:57;5.75;;;2.60;;
20306;SDS011;10312;52.434;13.206;2022-07-23T10:49:23;8.45;;;2.83;;
20306;SDS011;10312;52.434;13.206;2022-07-23T10:54:41;8.80;;;3.17;;
20306;SDS011;10312;52.434;13.206;2022-07-23T10:57:13;8.15;;;2.88;;
20306;SDS011;10312;52.434;13.206;2022-07-23T11:02:43;6.50;;;2.47;;
20306;SDS011;10312;52.434;13.206;2022-07-23T11:05:13;6.45;;;2.20;;
20306;SDS011;10312;52.434;13.206;2022-07-23T11:10:35;4.82;;;2.33;;
20306;SDS011;10312;52.434;13.206;2022-07-23T11:16:03;4.93;;;2.17;;
20306;SDS011;10312;52.434;13.206;2022-07-23T11:18:52;4.40;;;2.30;;
20306;SDS011;10312;52.434;13.206;2022-07-23T11:31:56;10.10;;;2.15;;
20306;SDS011;10312;52.434;13.206;2022-07-23T11:34:33;7.75;;;2.35;;
20306;SDS011;10312;52.434;13.206;2022-07-23T11:37:04;6.18;;;2.30;;
20306;SDS011;10312;52.434;13.206;2022-07-23T11:39:32;7.05;;;2.40;;
20306;SDS011;10312;52.434;13.206;2022-07-23T11:42:00;4.68;;;2.20;;
20306;SDS011;10312;52.434;13.206;2022-07-23T11:44:32;3.50;;;2.20;;
20306;SDS011;10312;52.434;13.206;2022-07-23T11:47:01;2.85;;;1.90;;
20306;SDS011;10312;52.434;13.206;2022-07-23T11:49:33;7.47;;;2.58;;
20306;SDS011;10312;52.434;13.206;2022-07-23T11:55:14;7.28;;;2.38;;
20306;SDS011;10312;52.434;13.206;2022-07-23T11:57:39;4.88;;;2.00;;
20306;SDS011;10312;52.434;13.206;2022-07-23T12:02:38;7.10;;;2.60;;
20306;SDS011;10312;52.434;13.206;2022-07-23T12:05:06;3.47;;;2.13;;
20306;SDS011;10312;52.434;13.206;2022-07-23T12:07:36;5.32;;;2.63;;
20306;SDS011;10312;52.434;13.206;2022-07-23T12:12:43;8.85;;;2.88;;
20306;SDS011;10312;52.434;13.206;2022-07-23T12:15:12;6.53;;;2.20;;
20306;SDS011;10312;52.434;13.206;2022-07-23T12:17:40;5.15;;;2.55;;
20306;SDS011;10312;52.434;13.206;2022-07-23T12:20:19;5.30;;;2.80;;
20306;SDS011;10312;52.434;13.206;2022-07-23T12:22:49;8.20;;;3.08;;
20306;SDS011;10312;52.434;13.206;2022-07-23T12:25:18;7.88;;;3.40;;
20306;SDS011;10312;52.434;13.206;2022-07-23T12:27:57;7.20;;;2.80;;
20306;SDS011;10312;52.434;13.206;2022-07-23T12:30:26;6.47;;;3.00;;
20306;SDS011;10312;52.434;13.206;2022-07-23T12:32:59;5.50;;;3.00;;
20306;SDS011;10312;52.434;13.206;2022-07-23T12:35:31;4.63;;;2.70;;
20306;SDS011;10312;52.434;13.206;2022-07-23T12:38:05;6.78;;;3.00;;
20306;SDS011;10312;52.434;13.206;2022-07-23T12:40:52;4.43;;;2.60;;
20306;SDS011;10312;52.434;13.206;2022-07-23T12:43:22;4.25;;;2.90;;
20306;SDS011;10312;52.434;13.206;2022-07-23T12:45:53;8.48;;;3.00;;
20306;SDS011;10312;52.434;13.206;2022-07-23T12:50:55;6.45;;;2.80;;
20306;SDS011;10312;52.434;13.206;2022-07-23T12:53:24;5.20;;;2.70;;
20306;SDS011;10312;52.434;13.206;2022-07-23T13:01:36;5.68;;;2.80;;
20306;SDS011;10312;52.434;13.206;2022-07-23T13:06:40;3.67;;;2.30;;
20306;SDS011;10312;52.434;13.206;2022-07-23T13:09:09;4.15;;;2.42;;
20306;SDS011;10312;52.434;13.206;2022-07-23T13:11:40;4.45;;;2.42;;
20306;SDS011;10312;52.434;13.206;2022-07-23T13:14:08;6.53;;;2.90;;
20306;SDS011;10312;52.434;13.206;2022-07-23T13:16:35;4.63;;;2.30;;
20306;SDS011;10312;52.434;13.206;2022-07-23T13:19:03;5.38;;;2.30;;
20306;SDS011;10312;52.434;13.206;2022-07-23T13:21:30;4.72;;;2.15;;
20306;SDS011;10312;52.434;13.206;2022-07-23T13:23:57;4.03;;;2.13;;
20306;SDS011;10312;52.434;13.206;2022-07-23T13:26:25;4.05;;;2.20;;
20306;SDS011;10312;52.434;13.206;2022-07-23T13:28:52;5.95;;;2.65;;
20306;SDS011;10312;52.434;13.206;2022-07-23T13:31:20;4.60;;;2.10;;
20306;SDS011;10312;52.434;13.206;2022-07-23T13:33:47;3.40;;;1.95;;
20306;SDS011;10312;52.434;13.206;2022-07-23T13:36:15;7.03;;;2.63;;
20306;SDS011;10312;52.434;13.206;2022-07-23T13:38:41;4.88;;;2.30;;
20306;SDS011;10312;52.434;13.206;2022-07-23T13:41:08;4.18;;;2.08;;
20306;SDS011;10312;52.434;13.206;2022-07-23T13:43:40;5.53;;;1.95;;
20306;SDS011;10312;52.434;13.206;2022-07-23T13:46:08;4.70;;;2.42;;
20306;SDS011;10312;52.434;13.206;2022-07-23T13:48:35;3.28;;;1.67;;
20306;SDS011;10312;52.434;13.206;2022-07-23T13:51:02;3.58;;;1.55;;
20306;SDS011;10312;52.434;13.206;2022-07-23T13:53:29;2.55;;;1.52;;
20306;SDS011;10312;52.434;13.206;2022-07-23T13:55:56;2.90;;;1.55;;
20306;SDS011;10312;52.434;13.206;2022-07-23T13:58:23;4.00;;;1.75;;
20306;SDS011;10312;52.434;13.206;2022-07-23T14:00:51;6.13;;;1.80;;
20306;SDS011;10312;52.434;13.206;2022-07-23T14:03:20;2.63;;;1.42;;
20306;SDS011;10312;52.434;13.206;2022-07-23T14:05:50;3.67;;;1.60;;
20306;SDS011;10312;52.434;13.206;2022-07-23T14:08:22;4.35;;;1.50;;
20306;SDS011;10312;52.434;13.206;2022-07-23T14:10:49;3.60;;;2.05;;
20306;SDS011;10312;52.434;13.206;2022-07-23T14:13:15;3.63;;;1.50;;
20306;SDS011;10312;52.434;13.206;2022-07-23T14:15:42;3.30;;;1.65;;
20306;SDS011;10312;52.434;13.206;2022-07-23T14:18:09;3.53;;;1.45;;
20306;SDS011;10312;52.434;13.206;2022-07-23T14:20:36;2.97;;;1.50;;
20306;SDS011;10312;52.434;13.206;2022-07-23T14:23:03;3.15;;;1.30;;
20306;SDS011;10312;52.434;13.206;2022-07-23T14:25:31;5.28;;;1.40;;
20306;SDS011;10312;52.434;13.206;2022-07-23T14:27:59;1.67;;;1.27;;
20306;SDS011;10312;52.434;13.206;2022-07-23T14:30:26;3.13;;;1.50;;
20306;SDS011;10312;52.434;13.206;2022-07-23T14:33:01;1.67;;;1.10;;
20306;SDS011;10312;52.434;13.206;2022-07-23T14:35:28;2.35;;;1.20;;
20306;SDS011;10312;52.434;13.206;2022-07-23T14:37:55;5.43;;;1.50;;
20306;SDS011;10312;52.434;13.206;2022-07-23T14:40:23;2.90;;;1.48;;
20306;SDS011;10312;52.434;13.206;2022-07-23T14:42:50;2.75;;;1.48;;
20306;SDS011;10312;52.434;13.206;2022-07-23T14:45:17;4.05;;;1.33;;
20306;SDS011;10312;52.434;13.206;2022-07-23T14:47:44;8.13;;;1.55;;
20306;SDS011;10312;52.434;13.206;2022-07-23T14:50:12;4.90;;;1.42;;
20306;SDS011;10312;52.434;13.206;2022-07-23T14:52:40;2.88;;;1.48;;
20306;SDS011;10312;52.434;13.206;2022-07-23T14:55:07;5.20;;;1.73;;
20306;SDS011;10312;52.434;13.206;2022-07-23T14:57:35;1.73;;;1.20;;
20306;SDS011;10312;52.434;13.206;2022-07-23T15:00:03;2.88;;;1.25;;
20306;SDS011;10312;52.434;13.206;2022-07-23T15:02:31;3.17;;;1.40;;
20306;SDS011;10312;52.434;13.206;2022-07-23T15:04:58;2.40;;;1.20;;
20306;SDS011;10312;52.434;13.206;2022-07-23T15:07:28;4.75;;;1.27;;
20306;SDS011;10312;52.434;13.206;2022-07-23T15:09:56;4.15;;;1.30;;
20306;SDS011;10312;52.434;13.206;2022-07-23T15:12:23;3.70;;;1.00;;
20306;SDS011;10312;52.434;13.206;2022-07-23T15:14:51;2.50;;;1.08;;
20306;SDS011;10312;52.434;13.206;2022-07-23T15:17:18;4.10;;;1.25;;
20306;SDS011;10312;52.434;13.206;2022-07-23T15:19:46;2.30;;;1.08;;
20306;SDS011;10312;52.434;13.206;2022-07-23T15:22:15;3.00;;;1.17;;
20306;SDS011;10312;52.434;13.206;2022-07-23T15:24:42;3.60;;;1.30;;
20306;SDS011;10312;52.434;13.206;2022-07-23T15:27:09;2.63;;;1.00;;
20306;SDS011;10312;52.434;13.206;2022-07-23T15:29:36;2.55;;;1.02;;
20306;SDS011;10312;52.434;13.206;2022-07-23T15:32:03;1.67;;;1.00;;
20306;SDS011;10312;52.434;13.206;2022-07-23T15:34:30;1.77;;;1.10;;
20306;SDS011;10312;52.434;13.206;2022-07-23T15:36:59;3.85;;;1.02;;
20306;SDS011;10312;52.434;13.206;2022-07-23T15:39:27;3.42;;;1.10;;
20306;SDS011;10312;52.434;13.206;2022-07-23T15:41:54;4.03;;;1.10;;
20306;SDS011;10312;52.434;13.206;2022-07-23T15:44:23;2.30;;;1.23;;
20306;SDS011;10312;52.434;13.206;2022-07-23T15:46:55;2.70;;;1.20;;